CES6787 ZLXY-ZSJX
Flight info
| Callsign | CES6787 |
|---|---|
| Flight time | N/A |
| Altitude | 35100 |
| Route | PUMUR W286 SUDGO H132 P234/K0848S1070 H36 SNF W269 OLPOV B213 WHA R343 SAGUD W50 XSH H17 JDZ H26 TXN G204 ELNEX A599 KAKIS |
| Aircraft | A20N/M-SDE1E2E3FGHIM3RWY/LB1 |
Departure
| Time | N/A |
|---|---|
| Airport | Xi'an Xianyang International Airport (ZLXY) |
Arrival
| Time | 2026-04-19 11:35 |
|---|---|
| Airport | Jiaxing Nanhu Airport (ZSJX) |
| Time | Latitude | Longitude | Altitude | Speed | Heading |
|---|---|---|---|---|---|
| 2026-04-19 10:40 | 30.32220 | 115.35452 | 34975 ft | 470 kts | 134° |
| 2026-04-19 10:40 | 30.30369 | 115.38616 | 34998 ft | 478 kts | 112° |
| 2026-04-19 10:40 | 30.29256 | 115.42207 | 35011 ft | 484 kts | 105° |
| 2026-04-19 10:41 | 30.26794 | 115.49659 | 35000 ft | 498 kts | 114° |
| 2026-04-19 10:41 | 30.23631 | 115.56772 | 35008 ft | 500 kts | 118° |
| 2026-04-19 10:42 | 30.20222 | 115.63776 | 35002 ft | 501 kts | 119° |
| 2026-04-19 10:42 | 30.16767 | 115.70782 | 34998 ft | 501 kts | 119° |
| 2026-04-19 10:43 | 30.13303 | 115.77794 | 35003 ft | 501 kts | 118° |
| 2026-04-19 10:43 | 30.09887 | 115.84754 | 35001 ft | 501 kts | 119° |
| 2026-04-19 10:44 | 30.06397 | 115.91765 | 34993 ft | 501 kts | 121° |
| 2026-04-19 10:44 | 30.02660 | 115.98557 | 34996 ft | 501 kts | 122° |
| 2026-04-19 10:45 | 29.98860 | 116.05299 | 34988 ft | 501 kts | 123° |
| 2026-04-19 10:45 | 29.95023 | 116.12023 | 34990 ft | 501 kts | 123° |
| 2026-04-19 10:46 | 29.91223 | 116.18697 | 34985 ft | 502 kts | 123° |
| 2026-04-19 10:46 | 29.87378 | 116.25449 | 34995 ft | 502 kts | 124° |
| 2026-04-19 10:47 | 29.83535 | 116.32147 | 34995 ft | 503 kts | 123° |
| 2026-04-19 10:47 | 29.79700 | 116.38854 | 35005 ft | 503 kts | 123° |
| 2026-04-19 10:48 | 29.75854 | 116.45596 | 35007 ft | 503 kts | 123° |
| 2026-04-19 10:48 | 29.72001 | 116.52305 | 35016 ft | 503 kts | 123° |
| 2026-04-19 10:49 | 29.68131 | 116.59042 | 35013 ft | 503 kts | 123° |
| 2026-04-19 10:49 | 29.64268 | 116.65762 | 35010 ft | 503 kts | 123° |
| 2026-04-19 10:50 | 29.60395 | 116.72502 | 35012 ft | 503 kts | 124° |
| 2026-04-19 10:50 | 29.56537 | 116.79174 | 35008 ft | 505 kts | 124° |
| 2026-04-19 10:51 | 29.52630 | 116.85923 | 35009 ft | 505 kts | 124° |
| 2026-04-19 10:51 | 29.48767 | 116.92612 | 35017 ft | 505 kts | 123° |
| 2026-04-19 10:52 | 29.44849 | 116.99385 | 35024 ft | 505 kts | 124° |
| 2026-04-19 10:52 | 29.40977 | 117.06049 | 35020 ft | 504 kts | 123° |
| 2026-04-19 10:53 | 29.37304 | 117.12981 | 35017 ft | 505 kts | 115° |
| 2026-04-19 10:53 | 29.35005 | 117.20534 | 35014 ft | 501 kts | 99° |
| 2026-04-19 10:54 | 29.34305 | 117.28414 | 35021 ft | 495 kts | 84° |
| 2026-04-19 10:54 | 29.34539 | 117.36253 | 35024 ft | 493 kts | 83° |
| 2026-04-19 10:55 | 29.34754 | 117.44097 | 35023 ft | 491 kts | 81° |
| 2026-04-19 10:55 | 29.35693 | 117.51778 | 35025 ft | 484 kts | 71° |
| 2026-04-19 10:56 | 29.37574 | 117.59077 | 35027 ft | 476 kts | 62° |
| 2026-04-19 10:56 | 29.40151 | 117.65971 | 35031 ft | 471 kts | 58° |
| 2026-04-19 10:57 | 29.42846 | 117.72851 | 35034 ft | 473 kts | 58° |
| 2026-04-19 10:57 | 29.45513 | 117.79773 | 35054 ft | 473 kts | 59° |
| 2026-04-19 10:58 | 29.48131 | 117.86668 | 35050 ft | 472 kts | 58° |
| 2026-04-19 10:58 | 29.50763 | 117.93576 | 35047 ft | 470 kts | 58° |
| 2026-04-19 10:59 | 29.53775 | 118.00156 | 35066 ft | 464 kts | 50° |
| 2026-04-19 10:59 | 29.57432 | 118.06107 | 35074 ft | 453 kts | 42° |
| 2026-04-19 11:00 | 29.61641 | 118.11379 | 35081 ft | 444 kts | 36° |
| 2026-04-19 11:00 | 29.66051 | 118.16399 | 35079 ft | 445 kts | 35° |
| 2026-04-19 11:01 | 29.70065 | 118.21935 | 35063 ft | 462 kts | 51° |
| 2026-04-19 11:01 | 29.72508 | 118.28843 | 35064 ft | 480 kts | 70° |
| 2026-04-19 11:02 | 29.73007 | 118.32687 | 35061 ft | 489 kts | 81° |
| 2026-04-19 11:02 | 29.72963 | 118.36607 | 35066 ft | 496 kts | 90° |
| 2026-04-19 11:02 | 29.72185 | 118.44527 | 35063 ft | 498 kts | 92° |
| 2026-04-19 11:03 | 29.71385 | 118.52464 | 35071 ft | 497 kts | 91° |
| 2026-04-19 11:03 | 29.70647 | 118.60346 | 35070 ft | 496 kts | 90° |
| 2026-04-19 11:04 | 29.69930 | 118.68262 | 35060 ft | 498 kts | 91° |
| 2026-04-19 11:04 | 29.69214 | 118.76125 | 35046 ft | 498 kts | 91° |
| 2026-04-19 11:05 | 29.68496 | 118.84068 | 35056 ft | 500 kts | 91° |
| 2026-04-19 11:05 | 29.67764 | 118.92073 | 35063 ft | 499 kts | 91° |
| 2026-04-19 11:06 | 29.67036 | 118.99981 | 34894 ft | 501 kts | 91° |
| 2026-04-19 11:06 | 29.66664 | 119.03968 | 34604 ft | 498 kts | 91° |
| 2026-04-19 11:06 | 29.66301 | 119.07886 | 34322 ft | 495 kts | 91° |
| 2026-04-19 11:07 | 29.65928 | 119.11858 | 34035 ft | 492 kts | 90° |
| 2026-04-19 11:07 | 29.65563 | 119.15752 | 33758 ft | 490 kts | 90° |
| 2026-04-19 11:07 | 29.65208 | 119.19668 | 33496 ft | 488 kts | 90° |
| 2026-04-19 11:07 | 29.64869 | 119.23491 | 33252 ft | 486 kts | 90° |
| 2026-04-19 11:08 | 29.64531 | 119.27359 | 33001 ft | 486 kts | 90° |
| 2026-04-19 11:08 | 29.64195 | 119.31218 | 32756 ft | 484 kts | 89° |
| 2026-04-19 11:08 | 29.63939 | 119.35082 | 32502 ft | 481 kts | 87° |
| 2026-04-19 11:08 | 29.63727 | 119.38905 | 32252 ft | 478 kts | 86° |
| 2026-04-19 11:09 | 29.63790 | 119.42715 | 32001 ft | 469 kts | 77° |
| 2026-04-19 11:09 | 29.64328 | 119.46349 | 31762 ft | 458 kts | 68° |
| 2026-04-19 11:09 | 29.65304 | 119.49770 | 31516 ft | 446 kts | 59° |
| 2026-04-19 11:09 | 29.66685 | 119.52954 | 31267 ft | 437 kts | 51° |
| 2026-04-19 11:10 | 29.68390 | 119.55802 | 31020 ft | 428 kts | 43° |
| 2026-04-19 11:10 | 29.70332 | 119.58372 | 30783 ft | 424 kts | 40° |
| 2026-04-19 11:10 | 29.72334 | 119.60826 | 30539 ft | 420 kts | 38° |
| 2026-04-19 11:10 | 29.74416 | 119.63143 | 30295 ft | 416 kts | 35° |
| 2026-04-19 11:11 | 29.76615 | 119.65334 | 30048 ft | 414 kts | 32° |
| 2026-04-19 11:11 | 29.78879 | 119.67346 | 29811 ft | 412 kts | 30° |
| 2026-04-19 11:11 | 29.81217 | 119.69190 | 29565 ft | 409 kts | 27° |
| 2026-04-19 11:11 | 29.83642 | 119.70894 | 29305 ft | 407 kts | 25° |
| 2026-04-19 11:12 | 29.86126 | 119.72568 | 29051 ft | 406 kts | 25° |
| 2026-04-19 11:12 | 29.88594 | 119.74221 | 28798 ft | 408 kts | 25° |
| 2026-04-19 11:12 | 29.91058 | 119.75872 | 28528 ft | 409 kts | 25° |
| 2026-04-19 11:12 | 29.93533 | 119.77535 | 28097 ft | 411 kts | 25° |
| 2026-04-19 11:13 | 29.95997 | 119.79191 | 27480 ft | 412 kts | 25° |
| 2026-04-19 11:13 | 29.98462 | 119.80848 | 26745 ft | 413 kts | 26° |
| 2026-04-19 11:13 | 30.00949 | 119.82520 | 25963 ft | 414 kts | 26° |
| 2026-04-19 11:13 | 30.03364 | 119.84150 | 25417 ft | 410 kts | 26° |
| 2026-04-19 11:14 | 30.05827 | 119.85814 | 24880 ft | 406 kts | 26° |
| 2026-04-19 11:14 | 30.08273 | 119.87468 | 24355 ft | 402 kts | 26° |
| 2026-04-19 11:14 | 30.10663 | 119.89083 | 23825 ft | 398 kts | 26° |
| 2026-04-19 11:14 | 30.13071 | 119.90711 | 23282 ft | 396 kts | 26° |
| 2026-04-19 11:15 | 30.15445 | 119.92315 | 22732 ft | 393 kts | 26° |
| 2026-04-19 11:15 | 30.17793 | 119.93905 | 22186 ft | 392 kts | 26° |
| 2026-04-19 11:15 | 30.20097 | 119.95466 | 21662 ft | 389 kts | 26° |
| 2026-04-19 11:15 | 30.22431 | 119.97050 | 21136 ft | 385 kts | 26° |
| 2026-04-19 11:16 | 30.24741 | 119.98618 | 20619 ft | 381 kts | 26° |
| 2026-04-19 11:16 | 30.27043 | 120.00178 | 20092 ft | 379 kts | 26° |
| 2026-04-19 11:16 | 30.29311 | 120.01716 | 19561 ft | 377 kts | 26° |
| 2026-04-19 11:16 | 30.31597 | 120.03268 | 19031 ft | 375 kts | 26° |
| 2026-04-19 11:17 | 30.33852 | 120.04800 | 18525 ft | 373 kts | 26° |
| 2026-04-19 11:17 | 30.36072 | 120.06308 | 18009 ft | 370 kts | 26° |
| 2026-04-19 11:17 | 30.38313 | 120.07833 | 17494 ft | 367 kts | 26° |
| 2026-04-19 11:17 | 30.40492 | 120.09317 | 16988 ft | 364 kts | 26° |
| 2026-04-19 11:18 | 30.42690 | 120.10815 | 16482 ft | 361 kts | 26° |
| 2026-04-19 11:18 | 30.44884 | 120.12309 | 15967 ft | 360 kts | 26° |
| 2026-04-19 11:18 | 30.47065 | 120.13793 | 15445 ft | 359 kts | 27° |
| 2026-04-19 11:18 | 30.49231 | 120.15268 | 14927 ft | 356 kts | 27° |
| 2026-04-19 11:19 | 30.51364 | 120.16710 | 14416 ft | 354 kts | 27° |
| 2026-04-19 11:19 | 30.53514 | 120.18162 | 13888 ft | 350 kts | 27° |
| 2026-04-19 11:19 | 30.55616 | 120.19585 | 13596 ft | 348 kts | 27° |
| 2026-04-19 11:19 | 30.57716 | 120.21024 | 13421 ft | 351 kts | 27° |
| 2026-04-19 11:20 | 30.59825 | 120.22472 | 13104 ft | 350 kts | 27° |
| 2026-04-19 11:20 | 30.61911 | 120.23905 | 12795 ft | 348 kts | 27° |
| 2026-04-19 11:20 | 30.64021 | 120.25352 | 12489 ft | 348 kts | 27° |
| 2026-04-19 11:20 | 30.66077 | 120.26761 | 12253 ft | 347 kts | 27° |
| 2026-04-19 11:21 | 30.68156 | 120.28181 | 12015 ft | 347 kts | 27° |
| 2026-04-19 11:21 | 30.70247 | 120.29615 | 11770 ft | 345 kts | 27° |
| 2026-04-19 11:21 | 30.72325 | 120.31047 | 11528 ft | 345 kts | 27° |
| 2026-04-19 11:22 | 30.76336 | 120.33814 | 11038 ft | 321 kts | 27° |
| 2026-04-19 11:22 | 30.78239 | 120.35126 | 10792 ft | 310 kts | 27° |
| 2026-04-19 11:22 | 30.80071 | 120.36389 | 10549 ft | 300 kts | 27° |
| 2026-04-19 11:22 | 30.81839 | 120.37608 | 10305 ft | 290 kts | 27° |
| 2026-04-19 11:23 | 30.83562 | 120.38796 | 10061 ft | 284 kts | 27° |
| 2026-04-19 11:23 | 30.85249 | 120.39960 | 9820 ft | 282 kts | 27° |
| 2026-04-19 11:23 | 30.86920 | 120.41163 | 9572 ft | 284 kts | 34° |
| 2026-04-19 11:23 | 30.88160 | 120.42988 | 9324 ft | 294 kts | 63° |
| 2026-04-19 11:24 | 30.88530 | 120.45344 | 9086 ft | 302 kts | 90° |
| 2026-04-19 11:24 | 30.87952 | 120.47691 | 8828 ft | 307 kts | 113° |
| 2026-04-19 11:24 | 30.87005 | 120.49950 | 8566 ft | 305 kts | 114° |
| 2026-04-19 11:24 | 30.86109 | 120.52173 | 8294 ft | 304 kts | 113° |
| 2026-04-19 11:25 | 30.85217 | 120.54398 | 8023 ft | 302 kts | 113° |
| 2026-04-19 11:25 | 30.84326 | 120.56644 | 7751 ft | 301 kts | 113° |
| 2026-04-19 11:25 | 30.83457 | 120.58836 | 7483 ft | 299 kts | 112° |
| 2026-04-19 11:25 | 30.82585 | 120.61056 | 7212 ft | 299 kts | 112° |
| 2026-04-19 11:26 | 30.81719 | 120.63245 | 6941 ft | 298 kts | 112° |
| 2026-04-19 11:26 | 30.80875 | 120.65430 | 6670 ft | 296 kts | 113° |
| 2026-04-19 11:26 | 30.80019 | 120.67625 | 6399 ft | 294 kts | 114° |
| 2026-04-19 11:26 | 30.79170 | 120.69781 | 6123 ft | 292 kts | 114° |
| 2026-04-19 11:27 | 30.78328 | 120.71904 | 5849 ft | 288 kts | 114° |
| 2026-04-19 11:27 | 30.77487 | 120.74007 | 5575 ft | 282 kts | 112° |
| 2026-04-19 11:27 | 30.76677 | 120.76070 | 5297 ft | 277 kts | 112° |
| 2026-04-19 11:27 | 30.75890 | 120.78113 | 5026 ft | 272 kts | 113° |
| 2026-04-19 11:28 | 30.75109 | 120.80089 | 4756 ft | 268 kts | 113° |
| 2026-04-19 11:28 | 30.74339 | 120.82031 | 4478 ft | 264 kts | 113° |
| 2026-04-19 11:28 | 30.73577 | 120.83966 | 4204 ft | 260 kts | 113° |
| 2026-04-19 11:28 | 30.72831 | 120.85860 | 3932 ft | 256 kts | 113° |
| 2026-04-19 11:29 | 30.72092 | 120.87732 | 3655 ft | 253 kts | 114° |
| 2026-04-19 11:29 | 30.71353 | 120.89587 | 3379 ft | 248 kts | 117° |
| 2026-04-19 11:29 | 30.70262 | 120.91090 | 3081 ft | 243 kts | 151° |
| 2026-04-19 11:29 | 30.68671 | 120.91493 | 2797 ft | 236 kts | 191° |
| 2026-04-19 11:30 | 30.67219 | 120.90672 | 2487 ft | 229 kts | 223° |
| 2026-04-19 11:30 | 30.65996 | 120.89487 | 2172 ft | 228 kts | 217° |
| 2026-04-19 11:30 | 30.64674 | 120.88532 | 2032 ft | 218 kts | 213° |
| 2026-04-19 11:30 | 30.63661 | 120.87338 | 1964 ft | 200 kts | 250° |
| 2026-04-19 11:31 | 30.63503 | 120.85832 | 2024 ft | 186 kts | 283° |
| 2026-04-19 11:31 | 30.63901 | 120.84389 | 2030 ft | 186 kts | 296° |
| 2026-04-19 11:31 | 30.64414 | 120.83011 | 1998 ft | 185 kts | 296° |
| 2026-04-19 11:31 | 30.64908 | 120.81619 | 1985 ft | 183 kts | 295° |
| 2026-04-19 11:32 | 30.65331 | 120.80329 | 1986 ft | 158 kts | 294° |
| 2026-04-19 11:32 | 30.65688 | 120.79201 | 1947 ft | 141 kts | 294° |
| 2026-04-19 11:32 | 30.66025 | 120.78133 | 1833 ft | 139 kts | 294° |
| 2026-04-19 11:32 | 30.66358 | 120.77085 | 1647 ft | 138 kts | 293° |
| 2026-04-19 11:33 | 30.66690 | 120.76040 | 1465 ft | 137 kts | 294° |
| 2026-04-19 11:33 | 30.67025 | 120.74993 | 1278 ft | 137 kts | 294° |
| 2026-04-19 11:33 | 30.67357 | 120.73949 | 1094 ft | 137 kts | 294° |
| 2026-04-19 11:33 | 30.67690 | 120.72907 | 910 ft | 137 kts | 293° |
| 2026-04-19 11:34 | 30.68021 | 120.71870 | 731 ft | 137 kts | 294° |
| 2026-04-19 11:34 | 30.68348 | 120.70824 | 547 ft | 137 kts | 292° |
| 2026-04-19 11:34 | 30.68671 | 120.69798 | 373 ft | 137 kts | 293° |
| 2026-04-19 11:34 | 30.69015 | 120.68749 | 182 ft | 137 kts | 293° |
| 2026-04-19 11:35 | 30.69342 | 120.67712 | 38 ft | 135 kts | 294° |
| 2026-04-19 11:35 | 30.69635 | 120.66831 | 23 ft | 82 kts | 289° |
| 2026-04-19 11:35 | 30.69766 | 120.66426 | 23 ft | 43 kts | 289° |
| 2026-04-19 11:35 | 30.69850 | 120.66157 | 23 ft | 26 kts | 297° |
| 2026-04-19 11:36 | 30.69962 | 120.65996 | 23 ft | 23 kts | 315° |
| 2026-04-19 11:36 | 30.70059 | 120.65891 | 23 ft | 15 kts | 317° |
| 2026-04-19 11:36 | 30.70137 | 120.65819 | 23 ft | 11 kts | 8° |
| 2026-04-19 11:36 | 30.70220 | 120.65829 | 23 ft | 11 kts | 334° |
| 2026-04-19 11:37 | 30.70256 | 120.65740 | 23 ft | 12 kts | 290° |
| 2026-04-19 11:37 | 30.70290 | 120.65640 | 23 ft | 13 kts | 292° |
| 2026-04-19 11:37 | 30.70325 | 120.65531 | 23 ft | 14 kts | 290° |
| 2026-04-19 11:37 | 30.70369 | 120.65487 | 23 ft | 9 kts | 19° |
| 2026-04-19 11:38 | 30.70435 | 120.65513 | 23 ft | 10 kts | 7° |
| 2026-04-19 11:38 | 30.70482 | 120.65457 | 23 ft | 11 kts | 289° |
| 2026-04-19 11:38 | 30.70511 | 120.65366 | 23 ft | 12 kts | 290° |
| 2026-04-19 11:38 | 30.70549 | 120.65288 | 23 ft | 9 kts | 353° |
| 2026-04-19 11:39 | 30.70596 | 120.65298 | 23 ft | 0 kts | 22° |